^^
No Wait Weather (KNEBELLE1) Station Historical Data
Daily Summary for May 25, 2019 Units:  English    Metric   Both
Daily Weekly Monthly Yearly Custom
  High: Low: Average:
Temperature: 77 °F 65.6 °F 71.1 °F
Dew Point: 67.98 °F 53.6 °F 62 °F
Humidity: 98% 53% 75%
Wind Speed: 7mph 0mph 0.1mph
Wind Gust: 7mph - -
Wind- - SE
Pressure: 29.82 in 29.64 in -
Precipitation: 0 in    
Historical Graphs
 
 
Tabular Data for May 25, 2019
Time Temperature Dew Point Pressure Wind Wind Speed Wind Gust Humidity Rainfall Rate (Hourly) solar
00:04 65.8 °F 60.82 °F 29.65 in Calm     84% 0 in WeatherCatV3.04B91 W/m2
00:09 65.6 °F 60.96 °F 29.65 in Calm     85% 0 in WeatherCatV3.04B91 W/m2
00:14 65.6 °F 61.29 °F 29.64 in Calm     86% 0 in WeatherCatV3.04B91 W/m2
00:18 65.6 °F 61.62 °F 29.64 in Calm     87% 0 in WeatherCatV3.04B91 W/m2
00:23 66.1 °F 62.76 °F 29.64 in Calm     89% 0 in WeatherCatV3.04B91 W/m2
00:29 66.4 °F 63.37 °F 29.64 in Calm     90% 0 in WeatherCatV3.04B91 W/m2
00:34 66.8 °F 64.08 °F 29.64 in Calm   1 mph 91% 0 in WeatherCatV3.04B91 W/m2
00:39 66.9 °F 64.18 °F 29.64 in Calm     91% 0 in WeatherCatV3.04B91 W/m2
00:44 67.1 °F 64.69 °F 29.65 in Calm   2 mph 92% 0 in WeatherCatV3.04B91 W/m2
00:49 67.3 °F 65.2 °F 29.65 in Calm   2 mph 93% 0 in WeatherCatV3.04B91 W/m2
00:53 67.3 °F 65.2 °F 29.65 in Calm     93% 0 in WeatherCatV3.04B91 W/m2
00:59 67.3 °F 65.2 °F 29.66 in Calm   1 mph 93% 0 in WeatherCatV3.04B91 W/m2
01:03 67.1 °F 65 °F 29.66 in Calm     93% 0 in WeatherCatV3.04B91 W/m2
01:09 67.1 °F 65.31 °F 29.66 in Calm     94% 0 in WeatherCatV3.04B91 W/m2
01:14 66.9 °F 65.11 °F 29.65 in Calm     94% 0 in WeatherCatV3.04B91 W/m2
01:19 66.9 °F 65.11 °F 29.65 in Calm     94% 0 in WeatherCatV3.04B91 W/m2
01:23 66.8 °F 65.01 °F 29.65 in Calm     94% 0 in WeatherCatV3.04B91 W/m2
01:29 66.8 °F 65.01 °F 29.65 in Calm     94% 0 in WeatherCatV3.04B91 W/m2
01:33 66.8 °F 65.01 °F 29.65 in Calm     94% 0 in WeatherCatV3.04B91 W/m2
01:39 66.6 °F 64.81 °F 29.65 in Calm     94% 0 in WeatherCatV3.04B91 W/m2
01:44 66.3 °F 64.82 °F 29.65 in Calm     95% 0 in WeatherCatV3.04B91 W/m2
01:49 66.3 °F 64.82 °F 29.65 in Calm     95% 0 in WeatherCatV3.04B91 W/m2
01:53 66.3 °F 64.82 °F 29.65 in Calm     95% 0 in WeatherCatV3.04B91 W/m2
01:59 66.3 °F 64.82 °F 29.65 in Calm     95% 0 in WeatherCatV3.04B91 W/m2
02:03 66.3 °F 64.82 °F 29.65 in Calm     95% 0 in WeatherCatV3.04B91 W/m2
02:09 66.1 °F 64.62 °F 29.65 in Calm     95% 0 in WeatherCatV3.04B91 W/m2
02:13 66.3 °F 65.12 °F 29.65 in Calm     96% 0 in WeatherCatV3.04B91 W/m2
02:19 66.3 °F 65.12 °F 29.65 in Calm     96% 0 in WeatherCatV3.04B91 W/m2
02:23 66.3 °F 65.12 °F 29.65 in Calm   1 mph 96% 0 in WeatherCatV3.04B91 W/m2
02:29 66.1 °F 64.92 °F 29.66 in Calm     96% 0 in WeatherCatV3.04B91 W/m2
02:33 66.1 °F 64.92 °F 29.66 in Calm     96% 0 in WeatherCatV3.04B91 W/m2
02:39 66.1 °F 64.92 °F 29.66 in Calm     96% 0 in WeatherCatV3.04B91 W/m2
02:44 66.3 °F 65.12 °F 29.65 in Calm     96% 0 in WeatherCatV3.04B91 W/m2
02:49 66.4 °F 65.52 °F 29.65 in Calm     97% 0 in WeatherCatV3.04B91 W/m2
02:54 66.4 °F 65.52 °F 29.65 in Calm     97% 0 in WeatherCatV3.04B91 W/m2
02:59 66.6 °F 65.72 °F 29.66 in Calm   3 mph 97% 0 in WeatherCatV3.04B91 W/m2
03:03 66.8 °F 65.92 °F 29.66 in Calm   3 mph 97% 0 in WeatherCatV3.04B91 W/m2
03:09 66.8 °F 65.92 °F 29.66 in Calm   3 mph 97% 0 in WeatherCatV3.04B91 W/m2
03:14 66.8 °F 65.92 °F 29.66 in Calm     97% 0 in WeatherCatV3.04B91 W/m2
03:19 66.9 °F 66.02 °F 29.66 in SW 7 mph 7 mph 97% 0 in WeatherCatV3.04B91 W/m2
03:24 66.9 °F 66.02 °F 29.66 in Calm   5 mph 97% 0 in WeatherCatV3.04B91 W/m2
03:29 66.9 °F 66.02 °F 29.65 in Calm   1 mph 97% 0 in WeatherCatV3.04B91 W/m2
03:34 66.9 °F 66.02 °F 29.65 in Calm   5 mph 97% 0 in WeatherCatV3.04B91 W/m2
03:39 66.9 °F 66.02 °F 29.65 in SW 1 mph 5 mph 97% 0 in WeatherCatV3.04B91 W/m2
03:44 66.9 °F 66.02 °F 29.65 in Calm   2 mph 97% 0 in WeatherCatV3.04B91 W/m2
03:49 66.9 °F 66.02 °F 29.65 in Calm     97% 0 in WeatherCatV3.04B91 W/m2
03:54 66.9 °F 66.02 °F 29.65 in Calm     97% 0 in WeatherCatV3.04B91 W/m2
03:59 66.9 °F 66.02 °F 29.65 in Calm   5 mph 97% 0 in WeatherCatV3.04B91 W/m2
04:03 66.9 °F 66.31 °F 29.65 in Calm   2 mph 98% 0 in WeatherCatV3.04B91 W/m2
04:09 66.9 °F 66.02 °F 29.65 in Calm   4 mph 97% 0 in WeatherCatV3.04B91 W/m2
04:13 66.9 °F 66.02 °F 29.65 in Calm   7 mph 97% 0 in WeatherCatV3.04B91 W/m2
04:19 67.1 °F 66.22 °F 29.65 in Calm     97% 0 in WeatherCatV3.04B91 W/m2
04:23 67.1 °F 66.22 °F 29.65 in Calm   1 mph 97% 0 in WeatherCatV3.04B91 W/m2
04:29 67.1 °F 66.22 °F 29.66 in Calm     97% 0 in WeatherCatV3.04B91 W/m2
04:33 66.9 °F 66.02 °F 29.66 in Calm   3 mph 97% 0 in WeatherCatV3.04B91 W/m2
04:39 66.9 °F 66.02 °F 29.66 in Calm     97% 0 in WeatherCatV3.04B91 W/m2
04:44 66.9 °F 66.02 °F 29.67 in Calm     97% 0 in WeatherCatV3.04B91 W/m2
04:49 66.9 °F 66.02 °F 29.67 in Calm   1 mph 97% 0 in WeatherCatV3.04B91 W/m2
04:53 66.9 °F 66.02 °F 29.67 in Calm   5 mph 97% 0 in WeatherCatV3.04B91 W/m2
04:59 66.9 °F 66.02 °F 29.67 in Calm     97% 0 in WeatherCatV3.04B91 W/m2
05:03 66.9 °F 66.02 °F 29.67 in Calm     97% 0 in WeatherCatV3.04B91 W/m2
05:09 66.9 °F 66.02 °F 29.67 in Calm     97% 0 in WeatherCatV3.04B91 W/m2
05:14 66.9 °F 66.02 °F 29.67 in Calm     97% 0 in WeatherCatV3.04B91 W/m2
05:19 66.8 °F 65.92 °F 29.67 in Calm     97% 0 in WeatherCatV3.04B91 W/m2
05:23 66.8 °F 65.92 °F 29.67 in Calm     97% 0 in WeatherCatV3.04B91 W/m2
05:29 66.6 °F 65.72 °F 29.68 in Calm     97% 0 in WeatherCatV3.04B91 W/m2
05:33 66.6 °F 65.72 °F 29.68 in Calm     97% 0 in WeatherCatV3.04B91 W/m2
05:39 66.4 °F 65.52 °F 29.68 in Calm     97% 0 in WeatherCatV3.04B91 W/m2
05:44 66.4 °F 65.52 °F 29.69 in WSW 1 mph 1 mph 97% 0 in WeatherCatV3.04B91 W/m2
05:49 66.4 °F 65.52 °F 29.69 in Calm     97% 0 in WeatherCatV3.04B91 W/m2
05:53 66.3 °F 65.42 °F 29.69 in Calm     97% 0 in WeatherCatV3.04B91 W/m2
05:59 66.3 °F 65.42 °F 29.69 in Calm     97% 0 in WeatherCatV3.04B91 W/m2
06:03 66.3 °F 65.42 °F 29.69 in Calm     97% 0 in WeatherCatV3.04B91 W/m2
06:09 66.3 °F 65.42 °F 29.69 in Calm     97% 0 in WeatherCatV3.04B91 W/m2
06:14 66.3 °F 65.42 °F 29.70 in Calm     97% 0 in WeatherCatV3.04B91 W/m2
06:19 66.3 °F 65.42 °F 29.70 in Calm   1 mph 97% 0 in WeatherCatV3.04B91 W/m2
06:23 66.3 °F 65.42 °F 29.70 in Calm     97% 0 in WeatherCatV3.04B91 W/m2
06:29 66.3 °F 65.42 °F 29.70 in Calm     97% 0 in WeatherCatV3.04B91 W/m2
06:33 66.3 °F 65.42 °F 29.70 in Calm   3 mph 97% 0 in WeatherCatV3.04B91 W/m2
06:39 66.3 °F 65.42 °F 29.70 in Calm   2 mph 97% 0 in WeatherCatV3.04B91 W/m2
06:44 66.3 °F 65.42 °F 29.70 in Calm     97% 0 in WeatherCatV3.04B91 W/m2
06:49 66.3 °F 65.42 °F 29.70 in Calm   1 mph 97% 0 in WeatherCatV3.04B91 W/m2
06:53 66.3 °F 65.42 °F 29.70 in Calm   3 mph 97% 0 in WeatherCatV3.04B91 W/m2
06:59 66.4 °F 65.52 °F 29.72 in Calm     97% 0 in WeatherCatV3.04B91 W/m2
07:03 66.4 °F 65.52 °F 29.72 in Calm     97% 0 in WeatherCatV3.04B91 W/m2
07:09 66.6 °F 65.72 °F 29.72 in Calm     97% 0 in WeatherCatV3.04B91 W/m2
07:14 66.6 °F 65.72 °F 29.73 in Calm     97% 0 in WeatherCatV3.04B91 W/m2
07:19 66.8 °F 65.92 °F 29.73 in Calm     97% 0 in WeatherCatV3.04B91 W/m2
07:23 66.8 °F 65.92 °F 29.73 in Calm     97% 0 in WeatherCatV3.04B91 W/m2
07:29 66.9 °F 66.02 °F 29.73 in Calm     97% 0 in WeatherCatV3.04B91 W/m2
07:34 67.3 °F 66.42 °F 29.73 in Calm     97% 0 in WeatherCatV3.04B91 W/m2
07:39 67.6 °F 66.71 °F 29.73 in Calm   1 mph 97% 0 in WeatherCatV3.04B91 W/m2
07:44 67.8 °F 66.91 °F 29.73 in Calm     97% 0 in WeatherCatV3.04B91 W/m2
07:49 68.1 °F 67.21 °F 29.73 in Calm     97% 0 in WeatherCatV3.04B91 W/m2
07:54 67.9 °F 66.71 °F 29.73 in Calm     96% 0 in WeatherCatV3.04B91 W/m2
07:59 67.9 °F 66.71 °F 29.73 in Calm     96% 0 in WeatherCatV3.04B91 W/m2
08:04 67.9 °F 66.71 °F 29.73 in Calm   5 mph 96% 0 in WeatherCatV3.04B91 W/m2
08:09 67.9 °F 66.71 °F 29.73 in Calm     96% 0 in WeatherCatV3.04B91 W/m2
08:14 68.3 °F 66.81 °F 29.74 in Calm   3 mph 95% 0 in WeatherCatV3.04B91 W/m2
08:19 68.8 °F 67.3 °F 29.74 in Calm     95% 0 in WeatherCatV3.04B91 W/m2
08:24 69.3 °F 67.49 °F 29.74 in Calm     94% 0 in WeatherCatV3.04B91 W/m2
08:29 69.8 °F 67.68 °F 29.74 in SW 2 mph 2 mph 93% 0 in WeatherCatV3.04B91 W/m2
08:34 70.1 °F 67.98 °F 29.74 in Calm     93% 0 in WeatherCatV3.04B91 W/m2
08:39 70.1 °F 67.34 °F 29.74 in Calm     91% 0 in WeatherCatV3.04B91 W/m2
08:43 70.1 °F 67.02 °F 29.74 in Calm     90% 0 in WeatherCatV3.04B91 W/m2
08:49 70.4 °F 66.99 °F 29.74 in Calm   1 mph 89% 0 in WeatherCatV3.04B91 W/m2
08:54 70.4 °F 66.67 °F 29.74 in Calm     88% 0 in WeatherCatV3.04B91 W/m2
08:59 70.9 °F 66.83 °F 29.75 in Calm     87% 0 in WeatherCatV3.04B91 W/m2
09:04 71.1 °F 66.69 °F 29.75 in Calm     86% 0 in WeatherCatV3.04B91 W/m2
09:09 71.6 °F 66.84 °F 29.75 in Calm     85% 0 in WeatherCatV3.04B91 W/m2
09:13 71.6 °F 66.15 °F 29.75 in Calm     83% 0 in WeatherCatV3.04B91 W/m2
09:19 70.4 °F 64.98 °F 29.75 in Calm     83% 0 in WeatherCatV3.04B91 W/m2
09:24 70.1 °F 65.37 °F 29.75 in Calm     85% 0 in WeatherCatV3.04B91 W/m2
09:29 69.8 °F 65.08 °F 29.76 in Calm     85% 0 in WeatherCatV3.04B91 W/m2
09:34 69.4 °F 65.02 °F 29.76 in Calm     86% 0 in WeatherCatV3.04B91 W/m2
09:39 69.6 °F 65.55 °F 29.76 in Calm     87% 0 in WeatherCatV3.04B91 W/m2
09:43 69.6 °F 65.22 °F 29.76 in Calm     86% 0 in WeatherCatV3.04B91 W/m2
09:49 70.1 °F 65.71 °F 29.76 in Calm     86% 0 in WeatherCatV3.04B91 W/m2
09:53 70.3 °F 65.57 °F 29.76 in Calm     85% 0 in WeatherCatV3.04B91 W/m2
09:59 70.4 °F 65.32 °F 29.75 in Calm     84% 0 in WeatherCatV3.04B91 W/m2
10:04 70.6 °F 65.52 °F 29.75 in Calm   1 mph 84% 0 in WeatherCatV3.04B91 W/m2
10:09 71.1 °F 65.66 °F 29.75 in Calm     83% 0 in WeatherCatV3.04B91 W/m2
10:14 71.3 °F 65.51 °F 29.75 in Calm   4 mph 82% 0 in WeatherCatV3.04B91 W/m2
10:19 71.5 °F 65.35 °F 29.75 in Calm     81% 0 in WeatherCatV3.04B91 W/m2
10:24 71.6 °F 65.09 °F 29.75 in Calm     80% 0 in WeatherCatV3.04B91 W/m2
10:29 72 °F 65.48 °F 29.75 in Calm     80% 0 in WeatherCatV3.04B91 W/m2
10:34 72.3 °F 65.04 °F 29.75 in Calm     78% 0 in WeatherCatV3.04B91 W/m2
10:39 72.5 °F 64.49 °F 29.75 in Calm     76% 0 in WeatherCatV3.04B91 W/m2
10:44 73 °F 65.35 °F 29.75 in Calm     77% 0 in WeatherCatV3.04B91 W/m2
10:49 73.2 °F 64.79 °F 29.75 in Calm     75% 0 in WeatherCatV3.04B91 W/m2
10:54 73.5 °F 64.3 °F 29.75 in Calm     73% 0 in WeatherCatV3.04B91 W/m2
10:59 73.9 °F 63.89 °F 29.75 in Calm     71% 0 in WeatherCatV3.04B91 W/m2
11:04 73.9 °F 63.48 °F 29.75 in Calm     70% 0 in WeatherCatV3.04B91 W/m2
11:09 73.7 °F 62.88 °F 29.75 in Calm     69% 0 in WeatherCatV3.04B91 W/m2
11:14 73.9 °F 63.07 °F 29.75 in Calm     69% 0 in WeatherCatV3.04B91 W/m2
11:19 74 °F 62.75 °F 29.75 in Calm     68% 0 in WeatherCatV3.04B91 W/m2
11:24 74.4 °F 63.96 °F 29.75 in Calm     70% 0 in WeatherCatV3.04B91 W/m2
11:29 74.9 °F 63.61 °F 29.75 in Calm     68% 0 in WeatherCatV3.04B91 W/m2
11:34 75.3 °F 63.14 °F 29.75 in Calm     66% 0 in WeatherCatV3.04B91 W/m2
11:39 75.3 °F 63.14 °F 29.75 in Calm     66% 0 in WeatherCatV3.04B91 W/m2
11:44 75.1 °F 62.51 °F 29.75 in Calm     65% 0 in WeatherCatV3.04B91 W/m2
11:49 74.9 °F 62.32 °F 29.75 in Calm     65% 0 in WeatherCatV3.04B91 W/m2
11:54 74.9 °F 62.76 °F 29.75 in Calm     66% 0 in WeatherCatV3.04B91 W/m2
11:59 74.7 °F 62.13 °F 29.77 in Calm     65% 0 in WeatherCatV3.04B91 W/m2
12:04 74.7 °F 62.13 °F 29.77 in Calm     65% 0 in WeatherCatV3.04B91 W/m2
12:09 74.7 °F 62.13 °F 29.77 in Calm     65% 0 in WeatherCatV3.04B91 W/m2
12:14 74.9 °F 62.76 °F 29.77 in Calm     66% 0 in WeatherCatV3.04B91 W/m2
12:19 74.9 °F 62.32 °F 29.77 in Calm   4 mph 65% 0 in WeatherCatV3.04B91 W/m2
12:24 75.3 °F 63.57 °F 29.77 in Calm     67% 0 in WeatherCatV3.04B91 W/m2
12:29 75.8 °F 64.04 °F 29.77 in Calm     67% 0 in WeatherCatV3.04B91 W/m2
12:34 75.8 °F 62.73 °F 29.77 in Calm     64% 0 in WeatherCatV3.04B91 W/m2
12:39 76 °F 63.37 °F 29.77 in Calm     65% 0 in WeatherCatV3.04B91 W/m2
12:44 76.1 °F 62.57 °F 29.77 in Calm     63% 0 in WeatherCatV3.04B91 W/m2
12:49 76.1 °F 62.57 °F 29.77 in Calm     63% 0 in WeatherCatV3.04B91 W/m2
12:54 76.3 °F 62.76 °F 29.77 in Calm     63% 0 in WeatherCatV3.04B91 W/m2
12:59 76.5 °F 62.49 °F 29.76 in Calm     62% 0 in WeatherCatV3.04B91 W/m2
13:03 76.7 °F 62.22 °F 29.76 in Calm     61% 0 in WeatherCatV3.04B91 W/m2
13:09 76.7 °F 62.22 °F 29.76 in Calm     61% 0 in WeatherCatV3.04B91 W/m2
13:14 76.8 °F 62.31 °F 29.76 in Calm     61% 0 in WeatherCatV3.04B91 W/m2
13:19 76.8 °F 62.77 °F 29.76 in Calm     62% 0 in WeatherCatV3.04B91 W/m2
13:24 76.8 °F 62.31 °F 29.76 in Calm     61% 0 in WeatherCatV3.04B91 W/m2
13:29 77 °F 62.5 °F 29.77 in Calm     61% 0 in WeatherCatV3.04B91 W/m2
13:34 76.8 °F 61.37 °F 29.77 in Calm     59% 0 in WeatherCatV3.04B91 W/m2
13:39 76.8 °F 61.84 °F 29.77 in Calm     60% 0 in WeatherCatV3.04B91 W/m2
13:44 76.5 °F 62.03 °F 29.76 in Calm     61% 0 in WeatherCatV3.04B91 W/m2
13:49 76.3 °F 61.84 °F 29.76 in Calm     61% 0 in WeatherCatV3.04B91 W/m2
13:54 76 °F 61.56 °F 29.76 in Calm   6 mph 61% 0 in WeatherCatV3.04B91 W/m2
13:59 74.9 °F 60.06 °F 29.77 in Calm   4 mph 60% 0 in WeatherCatV3.04B91 W/m2
14:03 74.2 °F 60.33 °F 29.77 in Calm     62% 0 in WeatherCatV3.04B91 W/m2
14:09 73.9 °F 60.04 °F 29.77 in Calm   3 mph 62% 0 in WeatherCatV3.04B91 W/m2
14:14 73.7 °F 60.3 °F 29.77 in NE 1 mph 3 mph 63% 0 in WeatherCatV3.04B91 W/m2
14:19 73.9 °F 60.94 °F 29.77 in Calm     64% 0 in WeatherCatV3.04B91 W/m2
14:24 73.9 °F 60.94 °F 29.77 in Calm     64% 0 in WeatherCatV3.04B91 W/m2
14:29 73.9 °F 60.94 °F 29.77 in Calm   1 mph 64% 0 in WeatherCatV3.04B91 W/m2
14:34 73.7 °F 60.75 °F 29.77 in Calm   3 mph 64% 0 in WeatherCatV3.04B91 W/m2
14:39 73.9 °F 61.38 °F 29.77 in Calm     65% 0 in WeatherCatV3.04B91 W/m2
14:43 74 °F 61.47 °F 29.77 in Calm     65% 0 in WeatherCatV3.04B91 W/m2
14:49 74.4 °F 62.71 °F 29.77 in Calm     67% 0 in WeatherCatV3.04B91 W/m2
14:54 74.7 °F 62.57 °F 29.77 in Calm     66% 0 in WeatherCatV3.04B91 W/m2
14:59 75.4 °F 62.8 °F 29.77 in Calm     65% 0 in WeatherCatV3.04B91 W/m2
15:04 75.8 °F 62.73 °F 29.77 in Calm     64% 0 in WeatherCatV3.04B91 W/m2
15:09 76.3 °F 63.65 °F 29.77 in Calm   2 mph 65% 0 in WeatherCatV3.04B91 W/m2
15:14 76.3 °F 64.94 °F 29.76 in Calm     68% 0 in WeatherCatV3.04B91 W/m2
15:19 76.5 °F 65.55 °F 29.76 in Calm     69% 0 in WeatherCatV3.04B91 W/m2
15:24 76.5 °F 65.97 °F 29.76 in Calm   2 mph 70% 0 in WeatherCatV3.04B91 W/m2
15:29 76.5 °F 66.38 °F 29.76 in Calm   1 mph 71% 0 in WeatherCatV3.04B91 W/m2
15:34 76.7 °F 66.57 °F 29.76 in Calm     71% 0 in WeatherCatV3.04B91 W/m2
15:39 76.8 °F 66.25 °F 29.76 in Calm     70% 0 in WeatherCatV3.04B91 W/m2
15:44 76.7 °F 66.16 °F 29.76 in Calm     70% 0 in WeatherCatV3.04B91 W/m2
15:49 76.3 °F 65.78 °F 29.76 in Calm   2 mph 70% 0 in WeatherCatV3.04B91 W/m2
15:54 75.8 °F 64.89 °F 29.76 in Calm   2 mph 69% 0 in WeatherCatV3.04B91 W/m2
15:58 75.1 °F 61.17 °F 29.76 in Calm   2 mph 62% 0 in WeatherCatV3.04B91 W/m2
16:04 74.9 °F 60.53 °F 29.77 in Calm     61% 0 in WeatherCatV3.04B91 W/m2
16:09 74.7 °F 60.34 °F 29.77 in Calm   4 mph 61% 0 in WeatherCatV3.04B91 W/m2
16:14 74.7 °F 60.34 °F 29.77 in Calm   3 mph 61% 0 in WeatherCatV3.04B91 W/m2
16:19 74.7 °F 60.34 °F 29.77 in Calm     61% 0 in WeatherCatV3.04B91 W/m2
16:24 74.9 °F 60.98 °F 29.77 in Calm   1 mph 62% 0 in WeatherCatV3.04B91 W/m2
16:29 75.3 °F 60.9 °F 29.75 in Calm     61% 0 in WeatherCatV3.04B91 W/m2
16:34 75.6 °F 60.72 °F 29.75 in Calm   1 mph 60% 0 in WeatherCatV3.04B91 W/m2
16:39 76.1 °F 60.71 °F 29.75 in Calm     59% 0 in WeatherCatV3.04B91 W/m2
16:44 76.1 °F 60.23 °F 29.75 in Calm   1 mph 58% 0 in WeatherCatV3.04B91 W/m2
16:49 76.3 °F 60.9 °F 29.75 in Calm   1 mph 59% 0 in WeatherCatV3.04B91 W/m2
16:54 76.3 °F 60.42 °F 29.75 in Calm   1 mph 58% 0 in WeatherCatV3.04B91 W/m2
16:59 76.3 °F 60.9 °F 29.75 in Calm     59% 0 in WeatherCatV3.04B91 W/m2
17:04 76.7 °F 61.75 °F 29.75 in Calm     60% 0 in WeatherCatV3.04B91 W/m2
17:09 76.5 °F 60.11 °F 29.75 in Calm   1 mph 57% 0 in WeatherCatV3.04B91 W/m2
17:14 76.3 °F 60.42 °F 29.75 in NE 1 mph 1 mph 58% 0 in WeatherCatV3.04B91 W/m2
17:19 76.3 °F 59.93 °F 29.75 in Calm     57% 0 in WeatherCatV3.04B91 W/m2
17:24 76.5 °F 60.6 °F 29.75 in Calm   1 mph 58% 0 in WeatherCatV3.04B91 W/m2
17:29 76.8 °F 60.39 °F 29.75 in Calm   3 mph 57% 0 in WeatherCatV3.04B91 W/m2
17:34 76.8 °F 59.89 °F 29.75 in ENE 2 mph 2 mph 56% 0 in WeatherCatV3.04B91 W/m2
17:39 76.7 °F 59.3 °F 29.75 in Calm   3 mph 55% 0 in WeatherCatV3.04B91 W/m2
17:44 76.7 °F 58.78 °F 29.75 in Calm   5 mph 54% 0 in WeatherCatV3.04B91 W/m2
17:49 76.7 °F 59.3 °F 29.75 in Calm     55% 0 in WeatherCatV3.04B91 W/m2
17:54 76.7 °F 59.3 °F 29.75 in Calm   2 mph 55% 0 in WeatherCatV3.04B91 W/m2
17:59 76.7 °F 58.78 °F 29.75 in ENE 1 mph 3 mph 54% 0 in WeatherCatV3.04B91 W/m2
18:04 76.5 °F 58.08 °F 29.75 in Calm   2 mph 53% 0 in WeatherCatV3.04B91 W/m2
18:09 76 °F 58.13 °F 29.75 in Calm   4 mph 54% 0 in WeatherCatV3.04B91 W/m2
18:14 75.8 °F 57.95 °F 29.75 in Calm     54% 0 in WeatherCatV3.04B91 W/m2
18:19 75.4 °F 57.58 °F 29.75 in Calm   1 mph 54% 0 in WeatherCatV3.04B91 W/m2
18:24 75.4 °F 58.09 °F 29.75 in Calm   1 mph 55% 0 in WeatherCatV3.04B91 W/m2
18:29 75.6 °F 57.76 °F 29.75 in Calm     54% 0 in WeatherCatV3.04B91 W/m2
18:34 75.6 °F 57.76 °F 29.75 in ENE 2 mph 3 mph 54% 0 in WeatherCatV3.04B91 W/m2
18:39 75.6 °F 57.76 °F 29.75 in Calm     54% 0 in WeatherCatV3.04B91 W/m2
18:44 75.6 °F 57.76 °F 29.75 in Calm   1 mph 54% 0 in WeatherCatV3.04B91 W/m2
18:49 75.4 °F 57.58 °F 29.75 in Calm     54% 0 in WeatherCatV3.04B91 W/m2
18:54 75.4 °F 58.09 °F 29.75 in Calm   1 mph 55% 0 in WeatherCatV3.04B91 W/m2
18:58 75.3 °F 58 °F 29.75 in Calm     55% 0 in WeatherCatV3.04B91 W/m2
19:04 75.3 °F 57.49 °F 29.74 in Calm     54% 0 in WeatherCatV3.04B91 W/m2
19:09 75.3 °F 58 °F 29.74 in Calm     55% 0 in WeatherCatV3.04B91 W/m2
19:14 75.3 °F 57.49 °F 29.74 in Calm   3 mph 54% 0 in WeatherCatV3.04B91 W/m2
19:19 75.3 °F 58 °F 29.74 in Calm     55% 0 in WeatherCatV3.04B91 W/m2
19:24 75.3 °F 57.49 °F 29.74 in Calm     54% 0 in WeatherCatV3.04B91 W/m2
19:29 75.1 °F 57.81 °F 29.73 in Calm   1 mph 55% 0 in WeatherCatV3.04B91 W/m2
19:34 74.9 °F 57.63 °F 29.73 in Calm     55% 0 in WeatherCatV3.04B91 W/m2
19:39 74.6 °F 57.35 °F 29.73 in Calm     55% 0 in WeatherCatV3.04B91 W/m2
19:44 74.4 °F 56.65 °F 29.74 in Calm   1 mph 54% 0 in WeatherCatV3.04B91 W/m2
19:49 74.4 °F 57.16 °F 29.74 in Calm     55% 0 in WeatherCatV3.04B91 W/m2
19:54 74.2 °F 56.47 °F 29.74 in Calm     54% 0 in WeatherCatV3.04B91 W/m2
19:59 74 °F 56.79 °F 29.75 in Calm     55% 0 in WeatherCatV3.04B91 W/m2
20:04 74 °F 57.29 °F 29.75 in Calm     56% 0 in WeatherCatV3.04B91 W/m2
20:09 73.7 °F 56.51 °F 29.75 in Calm     55% 0 in WeatherCatV3.04B91 W/m2
20:14 73.5 °F 56.33 °F 29.76 in Calm     55% 0 in WeatherCatV3.04B91 W/m2
20:19 73.3 °F 56.64 °F 29.76 in Calm     56% 0 in WeatherCatV3.04B91 W/m2
20:24 73.2 °F 56.55 °F 29.76 in Calm     56% 0 in WeatherCatV3.04B91 W/m2
20:29 73 °F 56.36 °F 29.76 in Calm     56% 0 in WeatherCatV3.04B91 W/m2
20:34 72.7 °F 56.08 °F 29.76 in Calm     56% 0 in WeatherCatV3.04B91 W/m2
20:39 72.5 °F 55.9 °F 29.76 in Calm     56% 0 in WeatherCatV3.04B91 W/m2
20:44 72.3 °F 55.21 °F 29.77 in Calm     55% 0 in WeatherCatV3.04B91 W/m2
20:49 72.1 °F 54.52 °F 29.77 in Calm     54% 0 in WeatherCatV3.04B91 W/m2
20:54 72 °F 54.43 °F 29.77 in Calm     54% 0 in WeatherCatV3.04B91 W/m2
20:59 72 °F 54.43 °F 29.77 in Calm     54% 0 in WeatherCatV3.04B91 W/m2
21:04 71.8 °F 54.24 °F 29.77 in Calm     54% 0 in WeatherCatV3.04B91 W/m2
21:09 71.8 °F 54.24 °F 29.77 in Calm     54% 0 in WeatherCatV3.04B91 W/m2
21:14 71.6 °F 54.06 °F 29.78 in Calm     54% 0 in WeatherCatV3.04B91 W/m2
21:19 71.5 °F 53.97 °F 29.78 in Calm     54% 0 in WeatherCatV3.04B91 W/m2
21:24 71.3 °F 53.78 °F 29.78 in Calm     54% 0 in WeatherCatV3.04B91 W/m2
21:29 71.1 °F 53.6 °F 29.79 in Calm     54% 0 in WeatherCatV3.04B91 W/m2
21:34 71.1 °F 53.6 °F 29.79 in Calm     54% 0 in WeatherCatV3.04B91 W/m2
21:39 70.9 °F 53.91 °F 29.79 in Calm     55% 0 in WeatherCatV3.04B91 W/m2
21:44 70.9 °F 53.91 °F 29.80 in Calm     55% 0 in WeatherCatV3.04B91 W/m2
21:49 70.8 °F 53.82 °F 29.80 in Calm     55% 0 in WeatherCatV3.04B91 W/m2
21:54 70.6 °F 53.63 °F 29.80 in Calm     55% 0 in WeatherCatV3.04B91 W/m2
21:59 70.4 °F 53.94 °F 29.79 in Calm     56% 0 in WeatherCatV3.04B91 W/m2
22:04 70.3 °F 53.85 °F 29.79 in Calm     56% 0 in WeatherCatV3.04B91 W/m2
22:08 70.3 °F 54.33 °F 29.79 in Calm     57% 0 in WeatherCatV3.04B91 W/m2
22:14 69.9 °F 54.44 °F 29.80 in Calm     58% 0 in WeatherCatV3.04B91 W/m2
22:19 69.6 °F 55.09 °F 29.80 in Calm     60% 0 in WeatherCatV3.04B91 W/m2
22:24 69.3 °F 54.81 °F 29.80 in Calm     60% 0 in WeatherCatV3.04B91 W/m2
22:29 69.1 °F 54.62 °F 29.82 in Calm     60% 0 in WeatherCatV3.04B91 W/m2
22:34 68.9 °F 54.43 °F 29.82 in Calm     60% 0 in WeatherCatV3.04B91 W/m2
22:39 68.9 °F 53.97 °F 29.82 in Calm     59% 0 in WeatherCatV3.04B91 W/m2
22:44 68.9 °F 53.97 °F 29.81 in Calm     59% 0 in WeatherCatV3.04B91 W/m2
22:49 69.1 °F 54.16 °F 29.81 in Calm     59% 0 in WeatherCatV3.04B91 W/m2
22:54 69.1 °F 54.62 °F 29.81 in Calm     60% 0 in WeatherCatV3.04B91 W/m2
22:59 68.9 °F 54.88 °F 29.80 in Calm     61% 0 in WeatherCatV3.04B91 W/m2
23:04 68.8 °F 54.79 °F 29.80 in Calm   1 mph 61% 0 in WeatherCatV3.04B91 W/m2
23:09 68.6 °F 54.6 °F 29.80 in Calm     61% 0 in WeatherCatV3.04B91 W/m2
23:14 68.4 °F 54.41 °F 29.79 in Calm     61% 0 in WeatherCatV3.04B91 W/m2
23:19 68.4 °F 54.41 °F 29.79 in Calm     61% 0 in WeatherCatV3.04B91 W/m2
23:24 68.1 °F 54.58 °F 29.79 in Calm     62% 0 in WeatherCatV3.04B91 W/m2
23:29 67.9 °F 54.39 °F 29.80 in Calm     62% 0 in WeatherCatV3.04B91 W/m2
23:34 67.9 °F 54.39 °F 29.80 in Calm     62% 0 in WeatherCatV3.04B91 W/m2
23:39 67.9 °F 54.39 °F 29.80 in Calm     62% 0 in WeatherCatV3.04B91 W/m2
23:44 68.1 °F 53.68 °F 29.78 in Calm     60% 0 in WeatherCatV3.04B91 W/m2
23:49 68.1 °F 53.68 °F 29.78 in Calm   5 mph 60% 0 in WeatherCatV3.04B91 W/m2
23:54 67.9 °F 53.94 °F 29.78 in Calm     61% 0 in WeatherCatV3.04B91 W/m2
23:59 67.8 °F 54.3 °F 29.79 in Calm   2 mph 62% 0 in WeatherCatV3.04B91 W/m2
Bellevue, Nebraska, USA
Compliments of Weather Underground - 3.25 mb